sensor_id;sensor_type;location;lat;lon;timestamp;temperature;humidity
52181;DHT22;38158;53.338;6.514;2022-12-07T00:01:21;4.40;99.90
52181;DHT22;38158;53.338;6.514;2022-12-07T00:03:48;4.30;99.90
52181;DHT22;38158;53.338;6.514;2022-12-07T00:06:15;4.20;99.90
52181;DHT22;38158;53.338;6.514;2022-12-07T00:08:41;4.40;99.90
52181;DHT22;38158;53.338;6.514;2022-12-07T00:11:15;4.10;99.90
52181;DHT22;38158;53.338;6.514;2022-12-07T00:13:41;4.10;99.90
52181;DHT22;38158;53.338;6.514;2022-12-07T00:18:35;4.00;99.90
52181;DHT22;38158;53.338;6.514;2022-12-07T00:21:22;3.90;99.90
52181;DHT22;38158;53.338;6.514;2022-12-07T00:23:49;3.90;99.90
52181;DHT22;38158;53.338;6.514;2022-12-07T00:26:23;3.90;99.90
52181;DHT22;38158;53.338;6.514;2022-12-07T00:29:00;4.00;99.90
52181;DHT22;38158;53.338;6.514;2022-12-07T00:31:32;4.00;99.90
52181;DHT22;38158;53.338;6.514;2022-12-07T00:33:58;4.10;99.90
52181;DHT22;38158;53.338;6.514;2022-12-07T00:36:25;4.00;99.90
52181;DHT22;38158;53.338;6.514;2022-12-07T00:38:51;4.60;99.90
52181;DHT22;38158;53.338;6.514;2022-12-07T00:41:19;4.20;99.90
52181;DHT22;38158;53.338;6.514;2022-12-07T00:43:46;4.20;99.90
52181;DHT22;38158;53.338;6.514;2022-12-07T00:46:12;4.30;99.90
52181;DHT22;38158;53.338;6.514;2022-12-07T00:48:37;4.40;99.90
52181;DHT22;38158;53.338;6.514;2022-12-07T00:51:04;4.60;99.90
52181;DHT22;38158;53.338;6.514;2022-12-07T00:53:30;4.50;99.90
52181;DHT22;38158;53.338;6.514;2022-12-07T00:55:56;4.50;99.90
52181;DHT22;38158;53.338;6.514;2022-12-07T00:58:23;4.50;99.90
52181;DHT22;38158;53.338;6.514;2022-12-07T01:00:49;4.50;99.90
52181;DHT22;38158;53.338;6.514;2022-12-07T01:03:15;4.40;99.90
52181;DHT22;38158;53.338;6.514;2022-12-07T01:05:52;4.40;99.90
52181;DHT22;38158;53.338;6.514;2022-12-07T01:08:18;4.50;99.90
52181;DHT22;38158;53.338;6.514;2022-12-07T01:10:44;4.20;99.90
52181;DHT22;38158;53.338;6.514;2022-12-07T01:13:09;4.40;99.90
52181;DHT22;38158;53.338;6.514;2022-12-07T01:15:39;4.00;99.90
52181;DHT22;38158;53.338;6.514;2022-12-07T01:18:05;4.40;99.90
52181;DHT22;38158;53.338;6.514;2022-12-07T01:20:31;4.00;99.90
52181;DHT22;38158;53.338;6.514;2022-12-07T01:22:57;4.10;99.90
52181;DHT22;38158;53.338;6.514;2022-12-07T01:25:22;4.50;99.90
52181;DHT22;38158;53.338;6.514;2022-12-07T01:27:48;4.00;99.90
52181;DHT22;38158;53.338;6.514;2022-12-07T01:30:14;4.10;99.90
52181;DHT22;38158;53.338;6.514;2022-12-07T01:32:39;4.20;99.90
52181;DHT22;38158;53.338;6.514;2022-12-07T01:35:05;4.40;99.90
52181;DHT22;38158;53.338;6.514;2022-12-07T01:37:38;4.50;99.90
52181;DHT22;38158;53.338;6.514;2022-12-07T01:40:06;4.50;99.90
52181;DHT22;38158;53.338;6.514;2022-12-07T01:42:32;4.60;99.90
52181;DHT22;38158;53.338;6.514;2022-12-07T01:45:38;4.60;99.90
52181;DHT22;38158;53.338;6.514;2022-12-07T01:48:05;4.50;99.90
52181;DHT22;38158;53.338;6.514;2022-12-07T01:50:31;4.50;99.90
52181;DHT22;38158;53.338;6.514;2022-12-07T01:53:00;4.50;99.90
52181;DHT22;38158;53.338;6.514;2022-12-07T01:55:27;4.40;99.90
52181;DHT22;38158;53.338;6.514;2022-12-07T01:57:54;4.30;99.90
52181;DHT22;38158;53.338;6.514;2022-12-07T02:00:20;4.30;99.90
52181;DHT22;38158;53.338;6.514;2022-12-07T02:02:57;4.20;99.90
52181;DHT22;38158;53.338;6.514;2022-12-07T02:05:26;4.10;99.90
52181;DHT22;38158;53.338;6.514;2022-12-07T02:07:54;4.00;99.90
52181;DHT22;38158;53.338;6.514;2022-12-07T02:10:26;4.30;99.90
52181;DHT22;38158;53.338;6.514;2022-12-07T02:13:08;3.80;99.90
52181;DHT22;38158;53.338;6.514;2022-12-07T02:18:31;3.70;99.90
52181;DHT22;38158;53.338;6.514;2022-12-07T02:31:42;3.60;99.90
52181;DHT22;38158;53.338;6.514;2022-12-07T02:34:59;3.70;99.90
52181;DHT22;38158;53.338;6.514;2022-12-07T02:37:28;3.60;99.90
52181;DHT22;38158;53.338;6.514;2022-12-07T02:40:19;3.70;99.90
52181;DHT22;38158;53.338;6.514;2022-12-07T02:42:52;3.80;99.90
52181;DHT22;38158;53.338;6.514;2022-12-07T02:45:22;3.80;99.90
52181;DHT22;38158;53.338;6.514;2022-12-07T02:47:51;3.90;99.90
52181;DHT22;38158;53.338;6.514;2022-12-07T02:50:20;3.90;99.90
52181;DHT22;38158;53.338;6.514;2022-12-07T02:52:46;3.80;99.90
52181;DHT22;38158;53.338;6.514;2022-12-07T02:55:13;4.20;99.90
52181;DHT22;38158;53.338;6.514;2022-12-07T02:58:37;3.80;99.90
52181;DHT22;38158;53.338;6.514;2022-12-07T03:03:48;3.80;99.90
52181;DHT22;38158;53.338;6.514;2022-12-07T03:06:25;4.40;99.90
52181;DHT22;38158;53.338;6.514;2022-12-07T03:11:42;3.80;99.90
52181;DHT22;38158;53.338;6.514;2022-12-07T03:14:34;3.80;99.90
52181;DHT22;38158;53.338;6.514;2022-12-07T03:17:16;3.80;99.90
52181;DHT22;38158;53.338;6.514;2022-12-07T03:19:44;3.80;99.90
52181;DHT22;38158;53.338;6.514;2022-12-07T03:22:12;3.80;99.90
52181;DHT22;38158;53.338;6.514;2022-12-07T03:24:47;4.00;99.90
52181;DHT22;38158;53.338;6.514;2022-12-07T03:27:33;3.90;99.90
52181;DHT22;38158;53.338;6.514;2022-12-07T03:30:05;4.00;99.90
52181;DHT22;38158;53.338;6.514;2022-12-07T03:35:05;4.10;99.90
52181;DHT22;38158;53.338;6.514;2022-12-07T03:37:38;4.10;99.90
52181;DHT22;38158;53.338;6.514;2022-12-07T03:40:13;4.40;99.90
52181;DHT22;38158;53.338;6.514;2022-12-07T03:42:41;4.00;99.90
52181;DHT22;38158;53.338;6.514;2022-12-07T03:45:08;4.00;99.90
52181;DHT22;38158;53.338;6.514;2022-12-07T03:50:28;3.90;99.90
52181;DHT22;38158;53.338;6.514;2022-12-07T03:53:05;3.90;99.90
52181;DHT22;38158;53.338;6.514;2022-12-07T03:55:35;4.10;99.90
52181;DHT22;38158;53.338;6.514;2022-12-07T03:58:05;3.80;99.90
52181;DHT22;38158;53.338;6.514;2022-12-07T04:00:32;3.80;99.90
52181;DHT22;38158;53.338;6.514;2022-12-07T04:02:58;3.80;99.90
52181;DHT22;38158;53.338;6.514;2022-12-07T04:05:24;3.70;99.90
52181;DHT22;38158;53.338;6.514;2022-12-07T04:07:50;3.80;99.90
52181;DHT22;38158;53.338;6.514;2022-12-07T04:10:15;4.10;99.90
52181;DHT22;38158;53.338;6.514;2022-12-07T04:12:41;3.80;99.90
52181;DHT22;38158;53.338;6.514;2022-12-07T04:15:08;3.80;99.90
52181;DHT22;38158;53.338;6.514;2022-12-07T04:17:34;3.80;99.90
52181;DHT22;38158;53.338;6.514;2022-12-07T04:20:00;4.60;99.90
52181;DHT22;38158;53.338;6.514;2022-12-07T04:22:25;4.00;99.90
52181;DHT22;38158;53.338;6.514;2022-12-07T04:24:51;4.00;99.90
52181;DHT22;38158;53.338;6.514;2022-12-07T04:27:16;4.10;99.90
52181;DHT22;38158;53.338;6.514;2022-12-07T04:29:42;4.70;99.90
52181;DHT22;38158;53.338;6.514;2022-12-07T04:32:08;4.00;99.90
52181;DHT22;38158;53.338;6.514;2022-12-07T04:34:34;4.20;99.90
52181;DHT22;38158;53.338;6.514;2022-12-07T04:36:59;4.10;99.90
52181;DHT22;38158;53.338;6.514;2022-12-07T04:39:28;3.90;99.90
52181;DHT22;38158;53.338;6.514;2022-12-07T04:41:54;3.80;99.90
52181;DHT22;38158;53.338;6.514;2022-12-07T04:44:21;3.70;99.90
52181;DHT22;38158;53.338;6.514;2022-12-07T04:46:47;3.60;99.90
52181;DHT22;38158;53.338;6.514;2022-12-07T04:49:14;3.50;99.90
52181;DHT22;38158;53.338;6.514;2022-12-07T04:51:41;3.40;99.90
52181;DHT22;38158;53.338;6.514;2022-12-07T04:54:07;3.30;99.90
52181;DHT22;38158;53.338;6.514;2022-12-07T04:56:33;3.20;99.90
52181;DHT22;38158;53.338;6.514;2022-12-07T04:59:01;3.10;99.90
52181;DHT22;38158;53.338;6.514;2022-12-07T05:01:27;3.10;99.90
52181;DHT22;38158;53.338;6.514;2022-12-07T05:03:52;3.30;99.90
52181;DHT22;38158;53.338;6.514;2022-12-07T05:06:19;3.00;99.90
52181;DHT22;38158;53.338;6.514;2022-12-07T05:08:44;3.20;99.90
52181;DHT22;38158;53.338;6.514;2022-12-07T05:11:10;2.90;99.90
52181;DHT22;38158;53.338;6.514;2022-12-07T05:13:59;2.90;99.90
52181;DHT22;38158;53.338;6.514;2022-12-07T05:16:25;2.90;99.90
52181;DHT22;38158;53.338;6.514;2022-12-07T05:18:51;2.80;99.90
52181;DHT22;38158;53.338;6.514;2022-12-07T05:21:17;2.80;99.90
52181;DHT22;38158;53.338;6.514;2022-12-07T05:23:43;2.80;99.90
52181;DHT22;38158;53.338;6.514;2022-12-07T05:26:08;3.10;99.90
52181;DHT22;38158;53.338;6.514;2022-12-07T05:28:34;2.70;99.90
52181;DHT22;38158;53.338;6.514;2022-12-07T05:31:00;2.70;99.90
52181;DHT22;38158;53.338;6.514;2022-12-07T05:33:25;2.70;99.90
52181;DHT22;38158;53.338;6.514;2022-12-07T05:35:51;2.60;99.90
52181;DHT22;38158;53.338;6.514;2022-12-07T05:38:17;2.70;99.90
52181;DHT22;38158;53.338;6.514;2022-12-07T05:40:42;3.00;99.90
52181;DHT22;38158;53.338;6.514;2022-12-07T05:43:08;2.60;99.90
52181;DHT22;38158;53.338;6.514;2022-12-07T05:45:34;3.00;99.90
52181;DHT22;38158;53.338;6.514;2022-12-07T05:47:59;2.60;99.90
52181;DHT22;38158;53.338;6.514;2022-12-07T05:50:25;3.00;99.90
52181;DHT22;38158;53.338;6.514;2022-12-07T05:52:51;2.80;99.90
52181;DHT22;38158;53.338;6.514;2022-12-07T05:55:16;2.80;99.90
52181;DHT22;38158;53.338;6.514;2022-12-07T05:57:42;3.00;99.90
52181;DHT22;38158;53.338;6.514;2022-12-07T06:00:30;3.30;99.90
52181;DHT22;38158;53.338;6.514;2022-12-07T06:02:56;3.60;99.90
52181;DHT22;38158;53.338;6.514;2022-12-07T06:05:22;3.90;99.90
52181;DHT22;38158;53.338;6.514;2022-12-07T06:07:48;4.00;99.90
52181;DHT22;38158;53.338;6.514;2022-12-07T06:10:13;4.80;99.90
52181;DHT22;38158;53.338;6.514;2022-12-07T06:12:39;4.10;99.90
52181;DHT22;38158;53.338;6.514;2022-12-07T06:15:09;4.40;99.90
52181;DHT22;38158;53.338;6.514;2022-12-07T06:17:35;4.20;99.90
52181;DHT22;38158;53.338;6.514;2022-12-07T06:20:02;4.20;99.90
52181;DHT22;38158;53.338;6.514;2022-12-07T06:22:28;5.00;99.90
52181;DHT22;38158;53.338;6.514;2022-12-07T06:24:54;4.00;99.90
52181;DHT22;38158;53.338;6.514;2022-12-07T06:27:19;3.80;99.90
52181;DHT22;38158;53.338;6.514;2022-12-07T06:29:45;3.70;99.90
52181;DHT22;38158;53.338;6.514;2022-12-07T06:32:11;3.60;99.90
52181;DHT22;38158;53.338;6.514;2022-12-07T06:34:37;3.60;99.90
52181;DHT22;38158;53.338;6.514;2022-12-07T06:37:03;3.50;99.90
52181;DHT22;38158;53.338;6.514;2022-12-07T06:39:29;3.40;99.90
52181;DHT22;38158;53.338;6.514;2022-12-07T06:41:56;3.40;99.90
52181;DHT22;38158;53.338;6.514;2022-12-07T06:44:23;3.30;99.90
52181;DHT22;38158;53.338;6.514;2022-12-07T06:46:49;3.30;99.90
52181;DHT22;38158;53.338;6.514;2022-12-07T06:49:15;3.40;99.90
52181;DHT22;38158;53.338;6.514;2022-12-07T06:51:42;3.50;99.90
52181;DHT22;38158;53.338;6.514;2022-12-07T06:54:12;3.50;99.90
52181;DHT22;38158;53.338;6.514;2022-12-07T06:56:38;3.50;99.90
52181;DHT22;38158;53.338;6.514;2022-12-07T06:59:04;3.40;99.90
52181;DHT22;38158;53.338;6.514;2022-12-07T07:01:32;3.30;99.90
52181;DHT22;38158;53.338;6.514;2022-12-07T07:03:57;3.20;99.90
52181;DHT22;38158;53.338;6.514;2022-12-07T07:06:23;3.50;99.90
52181;DHT22;38158;53.338;6.514;2022-12-07T07:08:49;3.50;99.90
52181;DHT22;38158;53.338;6.514;2022-12-07T07:11:14;3.40;99.90
52181;DHT22;38158;53.338;6.514;2022-12-07T07:13:40;3.50;99.90
52181;DHT22;38158;53.338;6.514;2022-12-07T07:16:06;3.40;99.90
52181;DHT22;38158;53.338;6.514;2022-12-07T07:18:33;3.50;99.90
52181;DHT22;38158;53.338;6.514;2022-12-07T07:20:58;4.40;99.90
52181;DHT22;38158;53.338;6.514;2022-12-07T07:23:24;3.50;99.90
52181;DHT22;38158;53.338;6.514;2022-12-07T07:25:50;3.50;99.90
52181;DHT22;38158;53.338;6.514;2022-12-07T07:28:16;3.50;99.90
52181;DHT22;38158;53.338;6.514;2022-12-07T07:30:42;2.20;99.90
52181;DHT22;38158;53.338;6.514;2022-12-07T07:33:09;3.60;99.90
52181;DHT22;38158;53.338;6.514;2022-12-07T07:35:35;3.80;99.90
52181;DHT22;38158;53.338;6.514;2022-12-07T07:38:01;3.60;99.90
52181;DHT22;38158;53.338;6.514;2022-12-07T07:40:27;3.50;99.90
52181;DHT22;38158;53.338;6.514;2022-12-07T07:42:54;3.50;99.90
52181;DHT22;38158;53.338;6.514;2022-12-07T07:45:22;3.40;99.90
52181;DHT22;38158;53.338;6.514;2022-12-07T07:47:48;3.60;99.90
52181;DHT22;38158;53.338;6.514;2022-12-07T07:50:14;3.40;99.90
52181;DHT22;38158;53.338;6.514;2022-12-07T07:52:41;3.40;99.90
52181;DHT22;38158;53.338;6.514;2022-12-07T07:55:07;3.30;99.90
52181;DHT22;38158;53.338;6.514;2022-12-07T07:57:35;3.30;99.90
52181;DHT22;38158;53.338;6.514;2022-12-07T08:00:01;3.20;99.90
52181;DHT22;38158;53.338;6.514;2022-12-07T08:02:28;3.20;99.90
52181;DHT22;38158;53.338;6.514;2022-12-07T08:04:55;3.30;99.90
52181;DHT22;38158;53.338;6.514;2022-12-07T08:07:21;3.60;99.90
52181;DHT22;38158;53.338;6.514;2022-12-07T08:09:46;3.10;99.90
52181;DHT22;38158;53.338;6.514;2022-12-07T08:12:12;3.30;99.90
52181;DHT22;38158;53.338;6.514;2022-12-07T08:14:38;3.10;99.90
52181;DHT22;38158;53.338;6.514;2022-12-07T08:17:04;3.00;99.90
52181;DHT22;38158;53.338;6.514;2022-12-07T08:19:29;3.00;99.90
52181;DHT22;38158;53.338;6.514;2022-12-07T08:21:55;3.10;99.90
52181;DHT22;38158;53.338;6.514;2022-12-07T08:24:22;3.40;99.90
52181;DHT22;38158;53.338;6.514;2022-12-07T08:26:47;3.90;99.90
52181;DHT22;38158;53.338;6.514;2022-12-07T08:29:15;4.10;99.90
52181;DHT22;38158;53.338;6.514;2022-12-07T08:31:41;3.80;99.90
52181;DHT22;38158;53.338;6.514;2022-12-07T08:34:06;3.80;99.90
52181;DHT22;38158;53.338;6.514;2022-12-07T08:36:32;3.80;99.90
52181;DHT22;38158;53.338;6.514;2022-12-07T08:38:58;3.70;99.90
52181;DHT22;38158;53.338;6.514;2022-12-07T08:41:23;3.70;99.90
52181;DHT22;38158;53.338;6.514;2022-12-07T08:43:50;3.80;99.90
52181;DHT22;38158;53.338;6.514;2022-12-07T08:49:27;3.90;99.90
52181;DHT22;38158;53.338;6.514;2022-12-07T08:51:46;4.10;99.90
52181;DHT22;38158;53.338;6.514;2022-12-07T08:54:15;4.20;99.90
52181;DHT22;38158;53.338;6.514;2022-12-07T08:56:42;4.30;99.90
52181;DHT22;38158;53.338;6.514;2022-12-07T08:59:09;4.40;99.90
52181;DHT22;38158;53.338;6.514;2022-12-07T09:01:35;4.30;99.90
52181;DHT22;38158;53.338;6.514;2022-12-07T09:04:00;4.30;99.90
52181;DHT22;38158;53.338;6.514;2022-12-07T09:06:26;4.40;99.90
52181;DHT22;38158;53.338;6.514;2022-12-07T09:08:57;4.40;99.90
52181;DHT22;38158;53.338;6.514;2022-12-07T09:11:23;4.50;99.90
52181;DHT22;38158;53.338;6.514;2022-12-07T09:13:49;4.60;99.90
52181;DHT22;38158;53.338;6.514;2022-12-07T09:16:15;4.90;99.90
52181;DHT22;38158;53.338;6.514;2022-12-07T09:18:40;4.70;99.90
52181;DHT22;38158;53.338;6.514;2022-12-07T09:21:07;4.90;99.90
52181;DHT22;38158;53.338;6.514;2022-12-07T09:23:33;4.90;99.90
52181;DHT22;38158;53.338;6.514;2022-12-07T09:26:03;4.90;99.90
52181;DHT22;38158;53.338;6.514;2022-12-07T09:28:31;4.90;99.90
52181;DHT22;38158;53.338;6.514;2022-12-07T09:30:57;4.80;99.90
52181;DHT22;38158;53.338;6.514;2022-12-07T09:33:22;4.90;99.90
52181;DHT22;38158;53.338;6.514;2022-12-07T09:35:49;4.90;99.90
52181;DHT22;38158;53.338;6.514;2022-12-07T09:38:16;4.90;99.90
52181;DHT22;38158;53.338;6.514;2022-12-07T09:40:42;4.90;99.90
52181;DHT22;38158;53.338;6.514;2022-12-07T09:43:20;5.00;99.90
52181;DHT22;38158;53.338;6.514;2022-12-07T09:45:47;5.00;99.90
52181;DHT22;38158;53.338;6.514;2022-12-07T09:48:18;5.00;99.90
52181;DHT22;38158;53.338;6.514;2022-12-07T09:50:45;5.00;99.90
52181;DHT22;38158;53.338;6.514;2022-12-07T09:53:27;5.00;99.90
52181;DHT22;38158;53.338;6.514;2022-12-07T09:55:54;5.00;99.90
52181;DHT22;38158;53.338;6.514;2022-12-07T09:58:27;5.10;99.90
52181;DHT22;38158;53.338;6.514;2022-12-07T10:00:57;5.10;99.90
52181;DHT22;38158;53.338;6.514;2022-12-07T10:03:25;5.20;99.90
52181;DHT22;38158;53.338;6.514;2022-12-07T10:05:52;5.30;99.90
52181;DHT22;38158;53.338;6.514;2022-12-07T10:08:18;5.60;99.90
52181;DHT22;38158;53.338;6.514;2022-12-07T10:10:45;5.40;99.90
52181;DHT22;38158;53.338;6.514;2022-12-07T10:13:33;5.40;99.90
52181;DHT22;38158;53.338;6.514;2022-12-07T10:15:59;5.50;99.90
52181;DHT22;38158;53.338;6.514;2022-12-07T10:18:28;5.50;99.90
52181;DHT22;38158;53.338;6.514;2022-12-07T10:21:13;5.60;99.90
52181;DHT22;38158;53.338;6.514;2022-12-07T10:23:41;6.00;99.90
52181;DHT22;38158;53.338;6.514;2022-12-07T10:29:27;5.70;99.90
52181;DHT22;38158;53.338;6.514;2022-12-07T10:34:36;5.80;99.90
52181;DHT22;38158;53.338;6.514;2022-12-07T10:39:49;5.80;99.90
52181;DHT22;38158;53.338;6.514;2022-12-07T10:44:50;5.60;99.90
52181;DHT22;38158;53.338;6.514;2022-12-07T10:47:36;5.40;99.90
52181;DHT22;38158;53.338;6.514;2022-12-07T10:53:17;5.20;99.90
52181;DHT22;38158;53.338;6.514;2022-12-07T11:15:23;5.20;99.90
52181;DHT22;38158;53.338;6.514;2022-12-07T11:25:54;5.30;99.90
52181;DHT22;38158;53.338;6.514;2022-12-07T11:34:38;5.80;99.90
52181;DHT22;38158;53.338;6.514;2022-12-07T11:37:12;5.90;99.90
52181;DHT22;38158;53.338;6.514;2022-12-07T11:39:47;6.00;99.90
52181;DHT22;38158;53.338;6.514;2022-12-07T11:42:25;5.90;99.90
52181;DHT22;38158;53.338;6.514;2022-12-07T11:47:51;5.80;99.90
52181;DHT22;38158;53.338;6.514;2022-12-07T11:50:45;5.70;99.90
52181;DHT22;38158;53.338;6.514;2022-12-07T11:53:18;5.70;99.90
52181;DHT22;38158;53.338;6.514;2022-12-07T11:58:40;5.60;99.90
52181;DHT22;38158;53.338;6.514;2022-12-07T12:06:12;5.50;99.90
52181;DHT22;38158;53.338;6.514;2022-12-07T12:16:54;5.60;99.90
52181;DHT22;38158;53.338;6.514;2022-12-07T12:19:25;5.60;99.90
52181;DHT22;38158;53.338;6.514;2022-12-07T12:22:10;5.70;99.90
52181;DHT22;38158;53.338;6.514;2022-12-07T12:24:38;5.70;99.90
52181;DHT22;38158;53.338;6.514;2022-12-07T12:27:17;6.00;99.90
52181;DHT22;38158;53.338;6.514;2022-12-07T12:29:44;5.80;99.90
52181;DHT22;38158;53.338;6.514;2022-12-07T12:35:26;5.90;99.90
52181;DHT22;38158;53.338;6.514;2022-12-07T12:37:53;5.90;99.90
52181;DHT22;38158;53.338;6.514;2022-12-07T12:42:57;6.10;99.90
52181;DHT22;38158;53.338;6.514;2022-12-07T12:45:31;5.80;99.90
52181;DHT22;38158;53.338;6.514;2022-12-07T12:50:38;5.70;99.90
52181;DHT22;38158;53.338;6.514;2022-12-07T12:58:34;5.50;99.90
52181;DHT22;38158;53.338;6.514;2022-12-07T13:04:17;5.60;99.90
52181;DHT22;38158;53.338;6.514;2022-12-07T13:06:43;5.70;99.90
52181;DHT22;38158;53.338;6.514;2022-12-07T13:09:27;5.70;99.90
52181;DHT22;38158;53.338;6.514;2022-12-07T13:12:14;5.70;99.90
52181;DHT22;38158;53.338;6.514;2022-12-07T13:14:59;5.60;99.90
52181;DHT22;38158;53.338;6.514;2022-12-07T13:20:01;5.40;99.90
52181;DHT22;38158;53.338;6.514;2022-12-07T13:24:57;5.30;99.90
52181;DHT22;38158;53.338;6.514;2022-12-07T13:27:25;5.20;99.90
52181;DHT22;38158;53.338;6.514;2022-12-07T13:29:52;5.20;99.90
52181;DHT22;38158;53.338;6.514;2022-12-07T13:32:28;5.10;99.90
52181;DHT22;38158;53.338;6.514;2022-12-07T13:34:55;5.00;99.90
52181;DHT22;38158;53.338;6.514;2022-12-07T13:39:54;5.00;99.90
52181;DHT22;38158;53.338;6.514;2022-12-07T13:44:55;4.90;99.90
52181;DHT22;38158;53.338;6.514;2022-12-07T13:49:54;4.80;99.90
52181;DHT22;38158;53.338;6.514;2022-12-07T13:52:23;4.70;99.90
52181;DHT22;38158;53.338;6.514;2022-12-07T13:55:00;4.60;99.90
52181;DHT22;38158;53.338;6.514;2022-12-07T13:57:28;4.60;99.90
52181;DHT22;38158;53.338;6.514;2022-12-07T13:59:56;4.60;99.90
52181;DHT22;38158;53.338;6.514;2022-12-07T14:02:34;4.50;99.90
52181;DHT22;38158;53.338;6.514;2022-12-07T14:05:22;4.50;99.90
52181;DHT22;38158;53.338;6.514;2022-12-07T14:08:00;4.40;99.90
52181;DHT22;38158;53.338;6.514;2022-12-07T14:10:28;4.40;99.90
52181;DHT22;38158;53.338;6.514;2022-12-07T14:12:56;4.40;99.90
52181;DHT22;38158;53.338;6.514;2022-12-07T14:15:28;4.30;99.90
52181;DHT22;38158;53.338;6.514;2022-12-07T14:17:55;4.30;99.90
52181;DHT22;38158;53.338;6.514;2022-12-07T14:20:37;4.30;99.90
52181;DHT22;38158;53.338;6.514;2022-12-07T14:23:05;4.30;99.90
52181;DHT22;38158;53.338;6.514;2022-12-07T14:25:50;4.30;99.90
52181;DHT22;38158;53.338;6.514;2022-12-07T14:28:29;4.30;99.90
52181;DHT22;38158;53.338;6.514;2022-12-07T14:30:56;4.30;99.90
52181;DHT22;38158;53.338;6.514;2022-12-07T14:33:24;4.30;99.90
52181;DHT22;38158;53.338;6.514;2022-12-07T14:35:49;4.30;99.90
52181;DHT22;38158;53.338;6.514;2022-12-07T14:38:15;4.20;99.90
52181;DHT22;38158;53.338;6.514;2022-12-07T14:40:43;4.20;99.90
52181;DHT22;38158;53.338;6.514;2022-12-07T14:43:12;4.30;99.90
52181;DHT22;38158;53.338;6.514;2022-12-07T14:45:39;4.40;99.90
52181;DHT22;38158;53.338;6.514;2022-12-07T14:48:07;4.20;99.90
52181;DHT22;38158;53.338;6.514;2022-12-07T14:50:38;4.20;99.90
52181;DHT22;38158;53.338;6.514;2022-12-07T14:53:15;4.10;99.90
52181;DHT22;38158;53.338;6.514;2022-12-07T14:55:41;4.10;99.90
52181;DHT22;38158;53.338;6.514;2022-12-07T14:58:17;4.10;99.90
52181;DHT22;38158;53.338;6.514;2022-12-07T15:00:43;4.10;99.90
52181;DHT22;38158;53.338;6.514;2022-12-07T15:03:09;4.10;99.90
52181;DHT22;38158;53.338;6.514;2022-12-07T15:05:35;4.00;99.90
52181;DHT22;38158;53.338;6.514;2022-12-07T15:08:01;4.00;99.90
52181;DHT22;38158;53.338;6.514;2022-12-07T15:10:29;3.90;99.90
52181;DHT22;38158;53.338;6.514;2022-12-07T15:13:02;3.90;99.90
52181;DHT22;38158;53.338;6.514;2022-12-07T15:15:47;4.20;99.90
52181;DHT22;38158;53.338;6.514;2022-12-07T15:18:14;3.80;99.90
52181;DHT22;38158;53.338;6.514;2022-12-07T15:20:40;3.80;99.90
52181;DHT22;38158;53.338;6.514;2022-12-07T15:23:05;4.10;99.90
52181;DHT22;38158;53.338;6.514;2022-12-07T15:25:31;4.00;99.90
52181;DHT22;38158;53.338;6.514;2022-12-07T15:27:57;3.80;99.90
52181;DHT22;38158;53.338;6.514;2022-12-07T15:30:23;3.80;99.90
52181;DHT22;38158;53.338;6.514;2022-12-07T15:32:52;3.70;99.90
52181;DHT22;38158;53.338;6.514;2022-12-07T15:35:18;3.70;99.90
52181;DHT22;38158;53.338;6.514;2022-12-07T15:37:44;3.70;99.90
52181;DHT22;38158;53.338;6.514;2022-12-07T15:40:11;3.60;99.90
52181;DHT22;38158;53.338;6.514;2022-12-07T15:42:37;3.60;99.90
52181;DHT22;38158;53.338;6.514;2022-12-07T15:45:04;3.50;99.90
52181;DHT22;38158;53.338;6.514;2022-12-07T15:47:30;3.50;99.90
52181;DHT22;38158;53.338;6.514;2022-12-07T15:49:56;3.50;99.90
52181;DHT22;38158;53.338;6.514;2022-12-07T15:52:22;3.50;99.90
52181;DHT22;38158;53.338;6.514;2022-12-07T15:54:48;3.50;99.90
52181;DHT22;38158;53.338;6.514;2022-12-07T15:57:14;3.40;99.90
52181;DHT22;38158;53.338;6.514;2022-12-07T15:59:39;3.60;99.90
52181;DHT22;38158;53.338;6.514;2022-12-07T16:02:05;3.50;99.90
52181;DHT22;38158;53.338;6.514;2022-12-07T16:04:31;3.80;99.90
52181;DHT22;38158;53.338;6.514;2022-12-07T16:06:57;3.50;99.90
52181;DHT22;38158;53.338;6.514;2022-12-07T16:09:23;3.50;99.90
52181;DHT22;38158;53.338;6.514;2022-12-07T16:11:48;3.50;99.90
52181;DHT22;38158;53.338;6.514;2022-12-07T16:14:15;3.90;99.90
52181;DHT22;38158;53.338;6.514;2022-12-07T16:16:41;3.90;99.90
52181;DHT22;38158;53.338;6.514;2022-12-07T16:19:07;3.90;99.90
52181;DHT22;38158;53.338;6.514;2022-12-07T16:21:34;3.50;99.90
52181;DHT22;38158;53.338;6.514;2022-12-07T16:24:01;3.50;99.90
52181;DHT22;38158;53.338;6.514;2022-12-07T16:26:27;4.00;99.90
52181;DHT22;38158;53.338;6.514;2022-12-07T16:28:53;3.50;99.90
52181;DHT22;38158;53.338;6.514;2022-12-07T16:31:22;3.50;99.90
52181;DHT22;38158;53.338;6.514;2022-12-07T16:33:49;3.50;99.90
52181;DHT22;38158;53.338;6.514;2022-12-07T16:36:15;3.50;99.90
52181;DHT22;38158;53.338;6.514;2022-12-07T16:38:42;3.50;99.90
52181;DHT22;38158;53.338;6.514;2022-12-07T16:41:09;3.50;99.90
52181;DHT22;38158;53.338;6.514;2022-12-07T16:43:35;3.60;99.90
52181;DHT22;38158;53.338;6.514;2022-12-07T16:46:01;3.40;99.90
52181;DHT22;38158;53.338;6.514;2022-12-07T16:48:27;3.40;99.90
52181;DHT22;38158;53.338;6.514;2022-12-07T16:50:53;3.40;99.90
52181;DHT22;38158;53.338;6.514;2022-12-07T16:53:23;3.40;99.90
52181;DHT22;38158;53.338;6.514;2022-12-07T16:55:49;3.40;99.90
52181;DHT22;38158;53.338;6.514;2022-12-07T16:58:16;3.30;99.90
52181;DHT22;38158;53.338;6.514;2022-12-07T17:00:43;3.30;99.90
52181;DHT22;38158;53.338;6.514;2022-12-07T17:03:09;3.20;99.90
52181;DHT22;38158;53.338;6.514;2022-12-07T17:05:40;4.00;99.90
52181;DHT22;38158;53.338;6.514;2022-12-07T17:08:06;3.20;99.90
52181;DHT22;38158;53.338;6.514;2022-12-07T17:10:34;3.20;99.90
52181;DHT22;38158;53.338;6.514;2022-12-07T17:13:01;3.20;99.90
52181;DHT22;38158;53.338;6.514;2022-12-07T17:15:27;3.30;99.90
52181;DHT22;38158;53.338;6.514;2022-12-07T17:17:58;3.20;99.90
52181;DHT22;38158;53.338;6.514;2022-12-07T17:20:26;3.40;99.90
52181;DHT22;38158;53.338;6.514;2022-12-07T17:22:52;3.20;99.90
52181;DHT22;38158;53.338;6.514;2022-12-07T17:25:19;2.90;99.90
52181;DHT22;38158;53.338;6.514;2022-12-07T17:27:45;3.30;99.90
52181;DHT22;38158;53.338;6.514;2022-12-07T17:30:12;3.20;99.90
52181;DHT22;38158;53.338;6.514;2022-12-07T17:32:38;3.20;99.90
52181;DHT22;38158;53.338;6.514;2022-12-07T17:35:05;3.30;99.90
52181;DHT22;38158;53.338;6.514;2022-12-07T17:37:31;3.20;99.90
52181;DHT22;38158;53.338;6.514;2022-12-07T17:39:57;3.30;99.90
52181;DHT22;38158;53.338;6.514;2022-12-07T17:42:24;3.20;99.90
52181;DHT22;38158;53.338;6.514;2022-12-07T17:45:07;3.20;99.90
52181;DHT22;38158;53.338;6.514;2022-12-07T17:47:34;3.20;99.90
52181;DHT22;38158;53.338;6.514;2022-12-07T17:50:00;3.20;99.90
52181;DHT22;38158;53.338;6.514;2022-12-07T17:52:26;3.20;99.90
52181;DHT22;38158;53.338;6.514;2022-12-07T17:55:10;3.20;99.90
52181;DHT22;38158;53.338;6.514;2022-12-07T17:57:36;3.30;99.90
52181;DHT22;38158;53.338;6.514;2022-12-07T18:00:03;3.40;99.90
52181;DHT22;38158;53.338;6.514;2022-12-07T18:02:29;3.30;99.90